createdAt,value
2018-09-30T00:01:49.457Z,5.79
2018-09-30T00:06:49.398Z,5.19
2018-09-30T00:11:49.199Z,5.09
2018-09-30T00:16:49.699Z,5.09
2018-09-30T00:21:49.378Z,4.79
2018-09-30T00:26:49.965Z,4.99
2018-09-30T00:31:49.525Z,5.89
2018-09-30T00:36:49.297Z,5.79
2018-09-30T00:41:49.541Z,5.99
2018-09-30T00:46:48.856Z,5.59
2018-09-30T00:51:49.281Z,4.89
2018-09-30T00:56:48.904Z,4.69
2018-09-30T01:01:49.224Z,4.59
2018-09-30T01:06:48.707Z,4.79
2018-09-30T01:11:48.929Z,4.99
2018-09-30T01:16:49.197Z,5.49
2018-09-30T01:21:49.690Z,5.09
2018-09-30T01:26:49.244Z,5.89
2018-09-30T01:31:49.544Z,5.39
2018-09-30T01:36:48.999Z,4.59
2018-09-30T01:41:49.311Z,4.39
2018-09-30T01:46:49.549Z,4.19
2018-09-30T01:51:49.059Z,4.39
2018-09-30T01:56:48.606Z,5.29
2018-09-30T02:01:48.912Z,4.69
2018-09-30T02:06:49.442Z,4.19
2018-09-30T02:11:48.669Z,4.29
2018-09-30T02:16:48.974Z,4.39
2018-09-30T02:21:49.428Z,4.59
2018-09-30T02:26:49.025Z,4.59
2018-09-30T02:31:49.302Z,5.49
2018-09-30T02:36:48.807Z,4.49
2018-09-30T02:41:49.031Z,3.79
2018-09-30T02:46:49.301Z,3.69
2018-09-30T02:51:48.808Z,3.89
2018-09-30T02:56:49.384Z,3.59
2018-09-30T03:01:48.699Z,3.79
2018-09-30T03:06:49.168Z,4.29
2018-09-30T03:11:49.446Z,4.39
2018-09-30T03:16:48.666Z,3.79
2018-09-30T03:21:49.118Z,4.69
2018-09-30T03:26:48.704Z,3.69
2018-09-30T03:31:48.995Z,4.69
2018-09-30T03:36:49.453Z,3.89
2018-09-30T03:41:48.651Z,3.89
2018-09-30T03:46:48.959Z,4.59
2018-09-30T03:51:49.408Z,3.59
2018-09-30T03:56:49.445Z,3.99
2018-09-30T04:01:49.296Z,3.69
2018-09-30T04:06:48.792Z,3.19
2018-09-30T04:11:48.997Z,3.49
2018-09-30T04:16:49.456Z,3.39
2018-09-30T04:21:48.819Z,3.99
2018-09-30T04:26:49.353Z,4.09
2018-09-30T04:31:48.647Z,4.59
2018-09-30T04:36:49.060Z,3.99
2018-09-30T04:41:49.288Z,3.89
2018-09-30T04:46:48.638Z,3.19
2018-09-30T04:51:49.037Z,3.19
2018-09-30T04:56:48.671Z,2.79
2018-09-30T05:01:48.972Z,2.89
2018-09-30T05:06:49.446Z,2.59
2018-09-30T05:11:49.164Z,3.19
2018-09-30T05:16:49.479Z,3.49
2018-09-30T05:21:48.918Z,4.09
2018-09-30T05:26:49.493Z,3.49
2018-09-30T05:31:48.785Z,2.69
2018-09-30T05:36:48.692Z,3.49
2018-09-30T05:41:48.889Z,2.89
2018-09-30T05:46:49.162Z,3.59
2018-09-30T05:51:48.647Z,2.79
2018-09-30T05:56:49.231Z,2.59
2018-09-30T06:01:49.515Z,2.59
2018-09-30T06:06:49.022Z,2.89
2018-09-30T06:11:49.199Z,3.19
2018-09-30T06:16:48.590Z,3.29
2018-09-30T06:21:49.033Z,3.69
2018-09-30T06:26:48.565Z,3.89
2018-09-30T06:31:49.088Z,3.99
2018-09-30T06:36:49.303Z,3.89
2018-09-30T06:41:48.552Z,3.49
2018-09-30T06:46:48.817Z,3.39
2018-09-30T06:51:49.310Z,3.79
2018-09-30T06:56:48.941Z,4.39
2018-09-30T07:01:49.175Z,4.59
2018-09-30T07:06:48.686Z,4.89
2018-09-30T07:11:48.911Z,4.59
2018-09-30T07:16:49.400Z,4.29
2018-09-30T07:21:48.648Z,4.49
2018-09-30T07:26:49.224Z,5.09
2018-09-30T07:31:48.537Z,5.49
2018-09-30T07:36:49.020Z,5.69
2018-09-30T07:41:49.210Z,5.99
2018-09-30T07:46:48.700Z,6.09
2018-09-30T07:51:49.008Z,6.29
2018-09-30T07:56:48.557Z,6.49
2018-09-30T08:01:48.858Z,6.79
2018-09-30T08:06:49.351Z,7.29
2018-09-30T08:11:48.555Z,7.99
2018-09-30T08:16:48.985Z,8.29
2018-09-30T08:21:49.345Z,8.59
2018-09-30T08:26:48.880Z,8.99
2018-09-30T08:31:49.162Z,9.19
2018-09-30T08:36:48.661Z,9.49
2018-09-30T08:41:48.879Z,9.19
2018-09-30T08:46:49.531Z,10.19
2018-09-30T08:51:48.602Z,10.54
2018-09-30T08:56:49.215Z,10.42
2018-09-30T09:01:48.501Z,10.76
2018-09-30T09:06:49.033Z,10.81
2018-09-30T09:11:49.222Z,11.06
2018-09-30T09:16:48.567Z,11.18
2018-09-30T09:21:49.065Z,11.38
2018-09-30T09:26:48.593Z,11.60
2018-09-30T09:31:49.244Z,11.50
2018-09-30T09:36:49.366Z,11.57
2018-09-30T09:41:48.558Z,11.88
2018-09-30T09:46:48.880Z,12.00
2018-09-30T09:51:49.276Z,12.11
2018-09-30T09:56:48.893Z,12.14
2018-09-30T10:01:49.175Z,12.47
2018-09-30T10:06:48.678Z,11.92
2018-09-30T10:11:48.891Z,12.43
2018-09-30T10:16:49.202Z,12.31
2018-09-30T10:21:48.595Z,12.95
2018-09-30T10:26:49.214Z,13.02
2018-09-30T10:31:48.532Z,13.01
2018-09-30T10:36:48.987Z,13.17
2018-09-30T10:41:49.183Z,12.86
2018-09-30T10:46:48.477Z,12.59
2018-09-30T10:51:48.955Z,12.83
2018-09-30T10:56:48.671Z,12.86
2018-09-30T11:01:48.806Z,13.28
2018-09-30T11:06:49.748Z,13.36
2018-09-30T11:11:48.523Z,13.65
2018-09-30T11:16:48.810Z,13.29
2018-09-30T11:21:49.366Z,13.41
2018-09-30T11:26:48.899Z,13.37
2018-09-30T11:31:49.391Z,13.47
2018-09-30T11:36:48.639Z,13.31
2018-09-30T11:41:48.896Z,13.26
2018-09-30T11:46:49.231Z,13.61
2018-09-30T11:51:48.638Z,13.89
2018-09-30T11:56:49.273Z,13.64
2018-09-30T12:01:48.591Z,13.78
2018-09-30T12:06:49.047Z,13.88
2018-09-30T12:11:49.215Z,13.42
2018-09-30T12:16:48.565Z,13.81
2018-09-30T12:21:49.050Z,14.12
2018-09-30T12:26:48.630Z,13.10
2018-09-30T12:31:48.930Z,13.95
2018-09-30T12:36:49.349Z,13.08
2018-09-30T12:41:48.585Z,13.77
2018-09-30T12:46:48.961Z,13.30
2018-09-30T12:51:49.306Z,13.95
2018-09-30T12:56:48.963Z,13.78
2018-09-30T13:01:49.283Z,13.25
2018-09-30T13:06:48.766Z,13.20
2018-09-30T13:11:49.042Z,13.61
2018-09-30T13:16:49.294Z,13.51
2018-09-30T13:21:48.716Z,13.12
2018-09-30T13:26:49.311Z,13.20
2018-09-30T13:31:48.680Z,13.80
2018-09-30T13:36:49.055Z,13.51
2018-09-30T13:41:49.264Z,13.34
2018-09-30T13:46:48.659Z,13.01
2018-09-30T13:51:48.984Z,13.56
2018-09-30T13:56:48.599Z,13.67
2018-09-30T14:01:48.929Z,13.01
2018-09-30T14:06:49.501Z,13.10
2018-09-30T14:11:48.588Z,13.39
2018-09-30T14:16:48.908Z,13.39
2018-09-30T14:21:49.358Z,13.36
2018-09-30T14:26:49.223Z,13.67
2018-09-30T14:31:49.245Z,12.49
2018-09-30T14:36:48.777Z,13.08
2018-09-30T14:41:49.013Z,13.10
2018-09-30T14:46:49.231Z,13.01
2018-09-30T14:51:48.704Z,12.98
2018-09-30T14:56:49.296Z,12.39
2018-09-30T15:01:48.570Z,12.44
2018-09-30T15:06:49.080Z,12.58
2018-09-30T15:11:49.282Z,12.43
2018-09-30T15:16:48.609Z,12.16
2018-09-30T15:21:49.065Z,12.56
2018-09-30T15:26:48.681Z,13.11
2018-09-30T15:31:48.997Z,13.03
2018-09-30T15:36:49.439Z,13.03
2018-09-30T15:41:48.668Z,12.70
2018-09-30T15:46:48.962Z,12.86
2018-09-30T15:51:49.444Z,12.71
2018-09-30T15:56:49.068Z,12.50
2018-09-30T16:01:49.315Z,12.49
2018-09-30T16:06:48.834Z,11.51
2018-09-30T16:11:49.035Z,12.36
2018-09-30T16:16:49.349Z,12.19
2018-09-30T16:21:48.794Z,12.00
2018-09-30T16:26:49.456Z,11.91
2018-09-30T16:31:48.704Z,11.59
2018-09-30T16:36:49.148Z,11.64
2018-09-30T16:41:49.374Z,11.30
2018-09-30T16:46:48.688Z,11.13
2018-09-30T16:51:49.136Z,11.25
2018-09-30T16:56:49.036Z,11.20
2018-09-30T17:01:49.018Z,11.26
2018-09-30T17:06:49.867Z,11.41
2018-09-30T17:11:48.742Z,10.73
2018-09-30T17:16:49.040Z,10.99
2018-09-30T17:21:49.519Z,10.23
2018-09-30T17:26:49.098Z,10.11
2018-09-30T17:31:49.461Z,10.15
2018-09-30T17:36:48.837Z,10.36
2018-09-30T17:41:49.083Z,10.13
2018-09-30T17:46:49.379Z,10.45
2018-09-30T17:51:48.813Z,10.79
2018-09-30T17:56:49.470Z,10.78
2018-09-30T18:01:48.745Z,10.84
2018-09-30T18:06:49.248Z,10.78
2018-09-30T18:11:48.487Z,10.60
2018-09-30T18:16:48.918Z,10.49
2018-09-30T18:21:49.240Z,10.45
2018-09-30T18:26:48.863Z,10.66
2018-09-30T18:31:49.151Z,10.72
2018-09-30T18:36:48.581Z,10.62
2018-09-30T18:41:48.801Z,10.71
2018-09-30T18:46:49.076Z,10.58
2018-09-30T18:51:49.522Z,10.79
2018-09-30T18:56:49.160Z,11.03
2018-09-30T19:01:49.451Z,10.87
2018-09-30T19:06:48.975Z,10.21
2018-09-30T19:11:49.190Z,10.44
2018-09-30T19:16:48.548Z,10.84
2018-09-30T19:21:48.939Z,10.96
2018-09-30T19:26:48.578Z,10.79
2018-09-30T19:31:48.832Z,10.64
2018-09-30T19:36:49.318Z,10.59
2018-09-30T19:41:48.962Z,10.86
2018-09-30T19:46:48.818Z,11.25
2018-09-30T19:51:49.251Z,11.15
2018-09-30T19:56:48.864Z,10.96
2018-09-30T20:01:49.143Z,11.12
2018-09-30T20:06:48.628Z,11.20
2018-09-30T20:11:48.847Z,11.11
2018-09-30T20:16:49.127Z,11.15
2018-09-30T20:21:48.605Z,10.95
2018-09-30T20:26:49.176Z,10.70
2018-09-30T20:31:48.476Z,11.10
2018-09-30T20:36:48.943Z,11.25
2018-09-30T20:41:49.136Z,11.27
2018-09-30T20:46:49.519Z,11.07
2018-09-30T20:51:48.873Z,10.78
2018-09-30T20:56:48.521Z,10.75
2018-09-30T21:01:48.825Z,11.10
2018-09-30T21:06:49.324Z,10.82
2018-09-30T21:11:48.547Z,10.50
2018-09-30T21:16:48.866Z,10.14
2018-09-30T21:21:49.320Z,10.55
2018-09-30T21:26:48.991Z,10.76
2018-09-30T21:31:49.220Z,10.74
2018-09-30T21:36:48.654Z,10.56
2018-09-30T21:41:48.966Z,10.64
2018-09-30T21:46:49.211Z,10.50
2018-09-30T21:51:48.683Z,10.82
2018-09-30T21:56:49.254Z,10.03
2018-09-30T22:01:48.947Z,10.12
2018-09-30T22:06:49.055Z,10.13
2018-09-30T22:11:49.271Z,10.31
2018-09-30T22:16:48.571Z,10.47
2018-09-30T22:21:49.078Z,10.44
2018-09-30T22:26:48.748Z,10.13
2018-09-30T22:31:48.947Z,10.20
2018-09-30T22:36:49.399Z,10.17
2018-09-30T22:41:48.625Z,10.25
2018-09-30T22:46:48.917Z,9.99
2018-09-30T22:51:49.522Z,9.90
2018-09-30T22:56:49.053Z,10.14
2018-09-30T23:01:49.360Z,10.34
2018-09-30T23:06:48.858Z,10.23
2018-09-30T23:11:49.071Z,10.20
2018-09-30T23:16:49.344Z,10.21
2018-09-30T23:21:48.854Z,10.11
2018-09-30T23:26:48.475Z,9.95
2018-09-30T23:31:48.716Z,9.90
2018-09-30T23:36:49.230Z,9.90
2018-09-30T23:41:48.450Z,9.89
2018-09-30T23:46:48.724Z,9.49
2018-09-30T23:51:49.181Z,9.49
2018-09-30T23:56:48.798Z,9.89
